createdAt,value
2018-08-28T00:02:45.474Z,14.72
2018-08-28T00:05:50.405Z,14.78
2018-08-28T00:08:55.329Z,14.80
2018-08-28T00:12:00.318Z,14.71
2018-08-28T00:15:05.508Z,14.72
2018-08-28T00:18:10.429Z,14.67
2018-08-28T00:21:15.358Z,14.69
2018-08-28T00:24:20.280Z,14.66
2018-08-28T00:27:25.230Z,14.58
2018-08-28T00:30:30.210Z,14.55
2018-08-28T00:33:35.156Z,14.39
2018-08-28T00:36:40.066Z,14.40
2018-08-28T00:39:45.005Z,14.38
2018-08-28T00:42:49.938Z,14.36
2018-08-28T00:45:56.418Z,14.31
2018-08-28T00:49:01.343Z,14.26
2018-08-28T00:52:06.388Z,14.26
2018-08-28T00:55:11.338Z,14.21
2018-08-28T00:58:16.261Z,14.13
2018-08-28T01:01:21.177Z,14.00
2018-08-28T01:04:26.144Z,13.97
2018-08-28T01:07:31.121Z,14.02
2018-08-28T01:10:36.105Z,14.00
2018-08-28T01:13:41.070Z,13.95
2018-08-28T01:16:46.045Z,13.83
2018-08-28T01:19:51.049Z,13.73
2018-08-28T01:22:56.033Z,13.74
2018-08-28T01:26:01.036Z,13.72
2018-08-28T01:29:06.006Z,13.64
2018-08-28T01:32:10.988Z,13.60
2018-08-28T01:35:15.961Z,13.51
2018-08-28T01:38:20.924Z,13.49
2018-08-28T01:41:25.897Z,13.43
2018-08-28T01:44:30.845Z,13.42
2018-08-28T01:47:36.016Z,13.42
2018-08-28T01:50:41.002Z,13.32
2018-08-28T01:53:45.958Z,13.27
2018-08-28T01:56:50.896Z,13.23
2018-08-28T01:59:55.817Z,13.20
2018-08-28T02:03:00.916Z,13.15
2018-08-28T02:06:05.912Z,13.07
2018-08-28T02:09:10.869Z,13.04
2018-08-28T02:12:15.822Z,12.98
2018-08-28T02:15:20.791Z,12.91
2018-08-28T02:18:25.740Z,12.90
2018-08-28T02:21:30.698Z,12.92
2018-08-28T02:24:35.657Z,12.91
2018-08-28T02:27:40.602Z,12.80
2018-08-28T02:30:45.589Z,12.73
2018-08-28T02:33:50.589Z,12.63
2018-08-28T02:36:55.547Z,12.61
2018-08-28T02:40:00.516Z,12.57
2018-08-28T02:43:05.489Z,12.56
2018-08-28T02:46:10.457Z,12.41
2018-08-28T02:49:15.414Z,12.42
2018-08-28T02:52:20.369Z,12.34
2018-08-28T02:55:25.346Z,12.31
2018-08-28T02:58:30.320Z,12.31
2018-08-28T03:01:35.279Z,12.27
2018-08-28T03:04:40.232Z,12.11
2018-08-28T03:07:45.197Z,12.00
2018-08-28T03:10:50.193Z,11.97
2018-08-28T03:13:55.154Z,12.04
2018-08-28T03:17:00.180Z,12.07
2018-08-28T03:20:05.163Z,12.06
2018-08-28T03:23:10.123Z,11.94
2018-08-28T03:26:15.088Z,11.91
2018-08-28T03:29:20.214Z,11.91
2018-08-28T03:32:25.172Z,11.86
2018-08-28T03:35:30.157Z,11.81
2018-08-28T03:38:35.114Z,11.84
2018-08-28T03:41:40.074Z,11.77
2018-08-28T03:44:45.017Z,11.80
2018-08-28T03:47:49.959Z,11.82
2018-08-28T03:50:54.912Z,11.70
2018-08-28T03:53:59.841Z,11.67
2018-08-28T03:57:04.845Z,11.64
2018-08-28T04:00:09.811Z,11.63
2018-08-28T04:03:14.785Z,11.59
2018-08-28T04:06:19.785Z,11.52
2018-08-28T04:09:24.736Z,11.55
2018-08-28T04:12:29.709Z,11.54
2018-08-28T04:15:34.649Z,11.45
2018-08-28T04:18:39.589Z,11.37
2018-08-28T04:21:44.549Z,11.37
2018-08-28T04:24:49.517Z,11.41
2018-08-28T04:27:54.482Z,11.38
2018-08-28T04:30:59.497Z,11.32
2018-08-28T04:34:04.407Z,11.28
2018-08-28T04:37:09.556Z,11.10
2018-08-28T04:40:14.517Z,11.09
2018-08-28T04:43:19.498Z,11.03
2018-08-28T04:46:24.449Z,11.11
2018-08-28T04:49:29.383Z,11.16
2018-08-28T04:52:34.685Z,11.16
2018-08-28T04:55:39.640Z,11.19
2018-08-28T04:58:44.596Z,11.23
2018-08-28T05:01:49.546Z,11.14
2018-08-28T05:04:54.459Z,11.15
2018-08-28T05:07:59.373Z,11.23
2018-08-28T05:11:04.297Z,11.19
2018-08-28T05:14:09.246Z,11.20
2018-08-28T05:17:14.169Z,11.15
2018-08-28T05:20:19.071Z,11.19
2018-08-28T05:23:24.008Z,11.24
2018-08-28T05:26:28.898Z,11.32
2018-08-28T05:29:33.839Z,11.39
2018-08-28T05:32:38.760Z,11.41
2018-08-28T05:35:43.668Z,11.45
2018-08-28T05:38:48.589Z,11.49
2018-08-28T05:41:53.499Z,11.54
2018-08-28T05:44:58.402Z,11.63
2018-08-28T05:48:03.343Z,11.79
2018-08-28T05:51:08.252Z,11.92
2018-08-28T05:54:13.181Z,12.07
2018-08-28T05:57:18.137Z,12.23
2018-08-28T06:00:23.129Z,12.41
2018-08-28T06:03:28.402Z,12.61
2018-08-28T06:06:33.168Z,12.78
2018-08-28T06:09:38.134Z,12.98
2018-08-28T06:12:43.126Z,13.21
2018-08-28T06:15:48.063Z,13.45
2018-08-28T06:18:53.025Z,13.56
2018-08-28T06:21:58.415Z,13.77
2018-08-28T06:25:03.488Z,14.02
2018-08-28T06:28:08.573Z,14.29
2018-08-28T06:31:13.495Z,14.58
2018-08-28T06:34:18.461Z,14.85
2018-08-28T06:37:23.622Z,15.13
2018-08-28T06:40:28.565Z,15.41
2018-08-28T06:43:33.553Z,15.67
2018-08-28T06:46:38.509Z,15.95
2018-08-28T06:49:43.506Z,16.26
2018-08-28T06:52:48.521Z,16.51
2018-08-28T06:55:53.453Z,16.84
2018-08-28T06:58:58.485Z,17.03
2018-08-28T07:02:03.441Z,17.32
2018-08-28T07:05:08.738Z,17.64
2018-08-28T07:08:13.676Z,17.91
2018-08-28T07:11:18.600Z,18.16
2018-08-28T07:14:23.521Z,18.49
2018-08-28T07:17:28.479Z,18.70
2018-08-28T07:20:33.508Z,18.98
2018-08-28T07:23:38.437Z,19.27
2018-08-28T07:26:43.352Z,19.57
2018-08-28T07:29:48.276Z,19.95
2018-08-28T07:32:53.332Z,20.21
2018-08-28T07:35:58.257Z,20.34
2018-08-28T07:39:04.335Z,20.60
2018-08-28T07:42:09.441Z,20.77
2018-08-28T07:45:14.397Z,20.91
2018-08-28T07:48:19.408Z,20.87
2018-08-28T07:51:24.381Z,20.90
2018-08-28T07:54:29.312Z,21.06
2018-08-28T07:57:34.294Z,21.25
2018-08-28T08:00:39.227Z,21.61
2018-08-28T08:03:44.161Z,21.78
2018-08-28T08:06:49.094Z,21.93
2018-08-28T08:09:54.101Z,22.01
2018-08-28T08:12:59.173Z,22.10
2018-08-28T08:16:04.153Z,22.37
2018-08-28T08:19:09.157Z,22.67
2018-08-28T08:22:14.164Z,22.93
2018-08-28T08:25:19.105Z,23.26
2018-08-28T08:28:24.131Z,23.69
2018-08-28T08:31:29.005Z,24.03
2018-08-28T08:34:33.953Z,24.34
2018-08-28T08:37:38.905Z,24.08
2018-08-28T08:40:43.863Z,24.01
2018-08-28T08:43:48.832Z,24.13
2018-08-28T08:46:53.774Z,24.59
2018-08-28T08:49:58.727Z,24.90
2018-08-28T08:53:03.704Z,25.14
2018-08-28T08:56:08.669Z,25.34
2018-08-28T08:59:13.598Z,25.43
2018-08-28T09:02:18.581Z,25.34
2018-08-28T09:05:23.572Z,25.27
2018-08-28T09:08:28.561Z,24.99
2018-08-28T09:11:34.553Z,25.13
2018-08-28T09:14:39.525Z,25.42
2018-08-28T09:17:44.520Z,25.49
2018-08-28T09:20:49.473Z,25.26
2018-08-28T09:23:54.432Z,25.29
2018-08-28T09:26:59.384Z,25.54
2018-08-28T09:30:04.576Z,25.67
2018-08-28T09:33:09.524Z,26.00
2018-08-28T09:36:14.470Z,26.18
2018-08-28T09:39:19.416Z,26.22
2018-08-28T09:42:24.390Z,26.37
2018-08-28T09:45:29.353Z,26.13
2018-08-28T09:48:34.423Z,26.16
2018-08-28T09:51:39.285Z,26.35
2018-08-28T09:54:44.243Z,26.26
2018-08-28T09:57:49.209Z,26.14
2018-08-28T10:00:59.936Z,26.34
2018-08-28T10:04:05.080Z,26.54
2018-08-28T10:07:10.102Z,27.03
2018-08-28T10:10:15.028Z,27.00
2018-08-28T10:13:19.942Z,27.12
2018-08-28T10:16:24.967Z,27.28
2018-08-28T10:19:29.924Z,27.30
2018-08-28T10:22:34.905Z,27.31
2018-08-28T10:25:39.873Z,26.78
2018-08-28T10:28:44.824Z,26.62
2018-08-28T10:31:49.813Z,26.48
2018-08-28T10:34:54.973Z,26.47
2018-08-28T10:37:59.968Z,26.47
2018-08-28T10:41:05.166Z,26.57
2018-08-28T10:44:10.090Z,26.44
2018-08-28T10:47:15.083Z,26.73
2018-08-28T10:50:20.036Z,26.78
2018-08-28T10:53:25.132Z,26.97
2018-08-28T10:56:30.082Z,27.25
2018-08-28T10:59:35.154Z,27.02
2018-08-28T11:02:40.089Z,26.79
2018-08-28T11:05:45.128Z,27.02
2018-08-28T11:08:50.228Z,26.99
2018-08-28T11:11:55.060Z,27.00
2018-08-28T11:15:00.024Z,27.35
2018-08-28T11:18:05.270Z,27.51
2018-08-28T11:21:10.236Z,27.39
2018-08-28T11:24:15.173Z,27.39
2018-08-28T11:27:20.127Z,27.33
2018-08-28T11:30:25.105Z,27.20
2018-08-28T11:33:30.073Z,26.45
2018-08-28T11:36:35.052Z,26.10
2018-08-28T11:39:40.045Z,25.76
2018-08-28T11:42:45.017Z,25.89
2018-08-28T11:45:50.114Z,26.22
2018-08-28T11:48:55.089Z,26.54
2018-08-28T11:52:00.069Z,26.04
2018-08-28T11:55:05.458Z,25.95
2018-08-28T11:58:10.417Z,25.77
2018-08-28T12:01:15.387Z,25.82
2018-08-28T12:04:20.360Z,25.82
2018-08-28T12:07:25.442Z,25.77
2018-08-28T12:10:30.480Z,25.88
2018-08-28T12:13:35.553Z,25.92
2018-08-28T12:16:40.562Z,26.23
2018-08-28T12:19:45.542Z,26.46
2018-08-28T12:22:50.523Z,26.27
2018-08-28T12:25:55.530Z,25.95
2018-08-28T12:29:00.510Z,25.64
2018-08-28T12:32:05.493Z,25.57
2018-08-28T12:35:10.440Z,25.48
2018-08-28T12:38:15.391Z,25.42
2018-08-28T12:41:20.341Z,25.64
2018-08-28T12:44:25.276Z,25.46
2018-08-28T12:47:30.370Z,25.53
2018-08-28T12:50:35.300Z,25.65
2018-08-28T12:53:40.198Z,25.50
2018-08-28T12:56:45.158Z,25.35
2018-08-28T12:59:50.074Z,25.46
2018-08-28T13:02:54.999Z,25.47
2018-08-28T13:05:59.916Z,25.34
2018-08-28T13:09:05.703Z,25.42
2018-08-28T13:12:10.665Z,25.35
2018-08-28T13:15:15.607Z,25.39
2018-08-28T13:18:20.537Z,25.17
2018-08-28T13:21:25.477Z,25.15
2018-08-28T13:24:30.409Z,25.13
2018-08-28T13:27:35.371Z,25.27
2018-08-28T13:30:40.297Z,25.40
2018-08-28T13:33:45.232Z,25.43
2018-08-28T13:36:50.137Z,25.38
2018-08-28T13:39:55.068Z,25.41
2018-08-28T13:43:00.013Z,25.57
2018-08-28T13:46:04.956Z,25.57
2018-08-28T13:49:09.946Z,25.65
2018-08-28T13:52:14.862Z,25.57
2018-08-28T13:55:19.777Z,25.56
2018-08-28T13:58:24.706Z,25.49
2018-08-28T14:01:29.673Z,25.54
2018-08-28T14:04:34.589Z,25.60
2018-08-28T14:07:39.528Z,25.56
2018-08-28T14:10:44.525Z,25.33
2018-08-28T14:13:49.400Z,25.25
2018-08-28T14:16:54.306Z,25.26
2018-08-28T14:19:59.220Z,25.35
2018-08-28T14:23:04.399Z,25.45
2018-08-28T14:26:09.353Z,25.42
2018-08-28T14:29:14.319Z,25.38
2018-08-28T14:32:19.249Z,25.24
2018-08-28T14:35:24.185Z,25.21
2018-08-28T14:38:29.101Z,25.10
2018-08-28T14:41:34.061Z,25.05
2018-08-28T14:44:38.985Z,25.16
2018-08-28T14:47:43.908Z,25.14
2018-08-28T14:50:48.839Z,25.05
2018-08-28T14:53:53.927Z,24.95
2018-08-28T14:56:59.653Z,24.99
2018-08-28T15:00:05.035Z,24.91
2018-08-28T15:03:10.009Z,24.92
2018-08-28T15:06:14.951Z,25.05
2018-08-28T15:09:19.937Z,25.02
2018-08-28T15:12:24.933Z,24.95
2018-08-28T15:15:29.902Z,24.87
2018-08-28T15:18:34.873Z,24.74
2018-08-28T15:21:39.817Z,24.75
2018-08-28T15:24:44.904Z,24.67
2018-08-28T15:27:49.890Z,24.72
2018-08-28T15:30:54.852Z,24.71
2018-08-28T15:33:59.821Z,24.87
2018-08-28T15:37:04.808Z,24.91
2018-08-28T15:40:09.867Z,24.89
2018-08-28T15:43:14.844Z,24.79
2018-08-28T15:46:19.797Z,24.89
2018-08-28T15:49:24.748Z,24.84
2018-08-28T15:52:29.705Z,24.93
2018-08-28T15:55:34.673Z,24.79
2018-08-28T15:58:39.719Z,24.65
2018-08-28T16:01:44.673Z,24.66
2018-08-28T16:04:49.842Z,24.77
2018-08-28T16:07:54.565Z,24.62
2018-08-28T16:10:59.498Z,24.70
2018-08-28T16:14:04.449Z,24.70
2018-08-28T16:17:09.377Z,24.67
2018-08-28T16:20:14.280Z,24.69
2018-08-28T16:23:24.966Z,24.61
2018-08-28T16:26:29.877Z,24.50
2018-08-28T16:29:34.843Z,24.44
2018-08-28T16:32:39.729Z,24.46
2018-08-28T16:35:44.735Z,24.45
2018-08-28T16:38:49.639Z,24.34
2018-08-28T16:41:54.553Z,24.33
2018-08-28T16:44:59.788Z,24.30
2018-08-28T16:48:04.717Z,24.28
2018-08-28T16:51:09.628Z,24.17
2018-08-28T16:54:14.541Z,24.15
2018-08-28T16:57:19.470Z,24.13
2018-08-28T17:00:24.385Z,24.06
2018-08-28T17:03:29.318Z,24.07
2018-08-28T17:06:34.257Z,23.85
2018-08-28T17:09:39.298Z,23.86
2018-08-28T17:12:44.210Z,23.75
2018-08-28T17:15:49.245Z,23.76
2018-08-28T17:18:54.161Z,23.59
2018-08-28T17:21:59.085Z,23.40
2018-08-28T17:25:04.134Z,23.25
2018-08-28T17:28:09.044Z,23.05
2018-08-28T17:31:13.961Z,22.82
2018-08-28T17:34:18.912Z,22.72
2018-08-28T17:37:23.891Z,22.54
2018-08-28T17:40:28.744Z,22.39
2018-08-28T17:43:33.677Z,22.33
2018-08-28T17:46:38.809Z,22.33
2018-08-28T17:49:43.777Z,22.16
2018-08-28T17:52:48.648Z,22.13
2018-08-28T17:55:53.588Z,22.09
2018-08-28T17:58:58.505Z,21.95
2018-08-28T18:02:03.465Z,21.82
2018-08-28T18:05:08.424Z,21.54
2018-08-28T18:08:13.353Z,21.29
2018-08-28T18:11:18.292Z,21.15
2018-08-28T18:14:23.249Z,21.10
2018-08-28T18:17:28.210Z,20.97
2018-08-28T18:20:33.154Z,20.79
2018-08-28T18:23:38.068Z,20.35
2018-08-28T18:26:43.127Z,19.95
2018-08-28T18:29:48.409Z,19.87
2018-08-28T18:32:53.369Z,19.90
2018-08-28T18:35:58.559Z,19.74
2018-08-28T18:39:04.965Z,19.78
2018-08-28T18:42:09.917Z,19.75
2018-08-28T18:45:14.863Z,19.54
2018-08-28T18:48:19.772Z,19.39
2018-08-28T18:51:24.916Z,19.22
2018-08-28T18:54:29.851Z,19.00
2018-08-28T18:57:34.989Z,18.85
2018-08-28T19:00:39.957Z,18.60
2018-08-28T19:03:45.249Z,18.41
2018-08-28T19:06:50.569Z,18.10
2018-08-28T19:09:55.861Z,18.06
2018-08-28T19:13:01.637Z,18.12
2018-08-28T19:16:06.834Z,18.14
2018-08-28T19:19:11.822Z,18.15
2018-08-28T19:22:16.808Z,18.12
2018-08-28T19:25:21.792Z,18.06
2018-08-28T19:28:26.754Z,18.00
2018-08-28T19:31:31.965Z,17.78
2018-08-28T19:34:37.280Z,17.48
2018-08-28T19:37:42.238Z,17.47
2018-08-28T19:40:47.232Z,17.28
2018-08-28T19:43:52.525Z,17.24
2018-08-28T19:46:57.516Z,17.22
2018-08-28T19:50:02.894Z,17.14
2018-08-28T19:53:08.313Z,17.00
2018-08-28T19:56:13.269Z,16.77
2018-08-28T19:59:18.523Z,16.68
2018-08-28T20:02:23.452Z,16.69
2018-08-28T20:05:28.477Z,16.53
2018-08-28T20:08:33.417Z,16.51
2018-08-28T20:11:38.477Z,16.48
2018-08-28T20:14:43.633Z,16.35
2018-08-28T20:17:48.865Z,16.32
2018-08-28T20:20:54.268Z,16.14
2018-08-28T20:23:59.565Z,16.13
2018-08-28T20:27:04.942Z,16.09
2018-08-28T20:30:10.256Z,16.05
2018-08-28T20:33:15.617Z,16.01
2018-08-28T20:36:20.553Z,15.87
2018-08-28T20:39:26.777Z,15.65
2018-08-28T20:42:32.145Z,15.41
2018-08-28T20:45:37.540Z,15.39
2018-08-28T20:48:42.714Z,15.42
2018-08-28T20:51:48.117Z,15.48
2018-08-28T20:54:53.054Z,15.45
2018-08-28T20:57:58.108Z,15.38
2018-08-28T21:01:02.986Z,15.17
2018-08-28T21:04:08.289Z,15.20
2018-08-28T21:07:13.265Z,15.15
2018-08-28T21:10:18.970Z,14.97
2018-08-28T21:13:23.955Z,15.01
2018-08-28T21:16:29.369Z,14.96
2018-08-28T21:19:34.390Z,14.82
2018-08-28T21:22:40.479Z,14.76
2018-08-28T21:25:45.500Z,14.78
2018-08-28T21:28:50.525Z,14.77
2018-08-28T21:31:55.484Z,14.63
2018-08-28T21:35:00.469Z,14.46
2018-08-28T21:38:05.974Z,14.52
2018-08-28T21:41:11.166Z,14.54
2018-08-28T21:44:16.137Z,14.36
2018-08-28T21:47:21.194Z,14.28
2018-08-28T21:50:26.202Z,14.33
2018-08-28T21:53:31.185Z,14.26
2018-08-28T21:56:36.527Z,14.26
2018-08-28T22:03:22.297Z,14.30
2018-08-28T22:06:33.351Z,14.30
2018-08-28T22:09:39.094Z,14.16
2018-08-28T22:12:44.359Z,14.12
2018-08-28T22:15:49.749Z,14.14
2018-08-28T22:18:54.965Z,14.14
2018-08-28T22:22:00.053Z,14.06
2018-08-28T22:25:05.340Z,14.03
2018-08-28T22:28:10.293Z,13.92
2018-08-28T22:31:15.211Z,13.75
2018-08-28T22:34:20.447Z,13.77
2018-08-28T22:37:25.674Z,13.82
2018-08-28T22:40:31.257Z,13.68
2018-08-28T22:43:36.177Z,13.74
2018-08-28T22:46:41.114Z,13.71
2018-08-28T22:49:46.005Z,13.64
2018-08-28T22:52:50.917Z,13.66
2018-08-28T22:55:55.832Z,13.63
2018-08-28T22:59:00.756Z,13.62
2018-08-28T23:02:05.685Z,13.66
2018-08-28T23:05:10.621Z,13.67
2018-08-28T23:08:15.537Z,13.59
2018-08-28T23:11:20.462Z,13.53
2018-08-28T23:14:25.364Z,13.49
2018-08-28T23:17:30.267Z,13.46
2018-08-28T23:20:35.188Z,13.43
2018-08-28T23:23:40.105Z,13.28
2018-08-28T23:26:45.021Z,13.25
2018-08-28T23:29:49.937Z,13.28
2018-08-28T23:32:54.878Z,13.28
2018-08-28T23:35:59.797Z,13.18
2018-08-28T23:39:05.148Z,13.18
2018-08-28T23:42:10.062Z,13.20
2018-08-28T23:45:15.002Z,13.19
2018-08-28T23:48:19.926Z,13.10
2018-08-28T23:51:24.833Z,13.01
2018-08-28T23:54:29.741Z,13.09
2018-08-28T23:57:34.678Z,13.05
